Time;durP1;ratioP1;P1;durP2;ratioP2;P2;SDS_P1;SDS_P2;PMS_P1;PMS_P2;Temp;Humidity;BMP_temperature;BMP_pressure;BME280_temperature;BME280_humidity;BME280_pressure;Samples;Min_cycle;Max_cycle;Signal;HPM_P1;HPM_P2
2022/04/03 00:01:17;;;;;;;;;;;;;;;1.44;55.52832;102480.5;;;;-84
2022/04/03 00:06:14;;;;;;;;;;;;;;;1.34;55.44922;102485.6;;;;-85
2022/04/03 00:11:14;;;;;;;;;;;;;;;1.23;55.50098;102486.9;;;;-85
2022/04/03 00:16:12;;;;;;;;;;;;;;;1.12;55.5957;102484.3;;;;-86
2022/04/03 00:21:18;;;;;;;;;;;;;;;1.01;55.54883;102483;;;;-85
2022/04/03 00:25:04;;;;;;;2.1;0.8;;;;;;;;;;;;;-86
2022/04/03 00:26:12;;;;;;;;;;;;;;;0.91;55.79688;102480.4;;;;-86
2022/04/03 00:36:13;;;;;;;;;;;;;;;0.73;55.99121;102486.9;;;;-85
2022/04/03 00:41:14;;;;;;;;;;;;;;;0.66;56.20996;102484.8;;;;-84
2022/04/03 00:46:15;;;;;;;;;;;;;;;0.57;56.12207;102491.9;;;;-84
2022/04/03 00:51:12;;;;;;;;;;;;;;;0.5;56.28613;102495.7;;;;-83
2022/04/03 00:55:04;;;;;;;1.5;0.8;;;;;;;;;;;;;-84
2022/04/03 00:56:13;;;;;;;;;;;;;;;0.4;56.32715;102492.4;;;;-83
2022/04/03 01:01:13;;;;;;;;;;;;;;;0.32;56.4043;102489.6;;;;-83
2022/04/03 01:06:17;;;;;;;;;;;;;;;0.24;56.50293;102485.1;;;;-81
2022/04/03 01:11:15;;;;;;;;;;;;;;;0.14;56.34863;102484.9;;;;-84
2022/04/03 01:16:15;;;;;;;;;;;;;;;0.06;56.56543;102490.2;;;;-84
2022/04/03 01:21:14;;;;;;;;;;;;;;;-0.02;56.69629;102486.2;;;;-83
2022/04/03 01:25:10;;;;;;;1.3;0.5;;;;;;;;;;;;;-84
2022/04/03 01:26:12;;;;;;;;;;;;;;;-0.07;56.75391;102486.1;;;;-83
2022/04/03 01:31:13;;;;;;;;;;;;;;;-0.1;56.71875;102485.5;;;;-85
2022/04/03 01:36:13;;;;;;;;;;;;;;;-0.13;56.81152;102484;;;;-85
2022/04/03 01:41:18;;;;;;;;;;;;;;;-0.16;56.69922;102479.6;;;;-84
2022/04/03 01:46:28;;;;;;;;;;;;;;;-0.2;56.88867;102478.4;;;;-85
2022/04/03 01:51:18;;;;;;;;;;;;;;;-0.24;56.94922;102472.8;;;;-84
2022/04/03 01:55:08;;;;;;;1.2;0.7;;;;;;;;;;;;;-83
2022/04/03 01:56:14;;;;;;;;;;;;;;;-0.27;57.0332;102474.3;;;;-83
2022/04/03 02:01:12;;;;;;;;;;;;;;;-0.31;56.96289;102466.7;;;;-83
2022/04/03 02:06:13;;;;;;;;;;;;;;;-0.35;57.01074;102464;;;;-84
2022/04/03 02:11:12;;;;;;;;;;;;;;;-0.41;57.05762;102465;;;;-84
2022/04/03 02:16:13;;;;;;;;;;;;;;;-0.46;57.01758;102464;;;;-84
2022/04/03 02:21:18;;;;;;;;;;;;;;;-0.5;57.04395;102466.1;;;;-84
2022/04/03 02:25:09;;;;;;;2.3;0.5;;;;;;;;;;;;;-84
2022/04/03 02:26:12;;;;;;;;;;;;;;;-0.52;57.36719;102464.7;;;;-84
2022/04/03 02:31:15;;;;;;;;;;;;;;;-0.56;56.91797;102462.7;;;;-83
2022/04/03 02:36:14;;;;;;;;;;;;;;;-0.6;56.97656;102466.1;;;;-84
2022/04/03 02:41:14;;;;;;;;;;;;;;;-0.65;56.99316;102461.1;;;;-83
2022/04/03 02:46:14;;;;;;;;;;;;;;;-0.66;57.02344;102461.1;;;;-85
2022/04/03 02:51:19;;;;;;;;;;;;;;;-0.72;56.9834;102461.2;;;;-86
2022/04/03 02:55:04;;;;;;;1.9;0.6;;;;;;;;;;;;;-83
2022/04/03 02:56:14;;;;;;;;;;;;;;;-0.74;56.98047;102462;;;;-85
2022/04/03 03:01:14;;;;;;;;;;;;;;;-0.79;56.96191;102461.7;;;;-86
2022/04/03 03:06:14;;;;;;;;;;;;;;;-0.85;57.06348;102462.8;;;;-86
2022/04/03 03:11:13;;;;;;;;;;;;;;;-0.9;57.13281;102454.6;;;;-86
2022/04/03 03:16:14;;;;;;;;;;;;;;;-0.93;57.09668;102457.5;;;;-84
2022/04/03 03:21:15;;;;;;;;;;;;;;;-0.96;57.08203;102460.9;;;;-85
2022/04/03 03:25:11;;;;;;;2.2;0.6;;;;;;;;;;;;;-85
2022/04/03 03:26:12;;;;;;;;;;;;;;;-1.01;57.03125;102458.7;;;;-86
2022/04/03 03:31:13;;;;;;;;;;;;;;;-1.03;57.03906;102454.5;;;;-87
2022/04/03 03:36:16;;;;;;;;;;;;;;;-1.08;57.04297;102452.2;;;;-84
2022/04/03 03:41:14;;;;;;;;;;;;;;;-1.14;57.09961;102449.5;;;;-86
2022/04/03 03:46:12;;;;;;;;;;;;;;;-1.2;57.30762;102451.9;;;;-83
2022/04/03 03:51:13;;;;;;;;;;;;;;;-1.23;57.21777;102450.6;;;;-83
2022/04/03 03:55:01;;;;;;;1.6;0.8;;;;;;;;;;;;;-85
2022/04/03 03:56:13;;;;;;;;;;;;;;;-1.25;57.2041;102448.3;;;;-84
2022/04/03 04:01:12;;;;;;;;;;;;;;;-1.3;57.1748;102454.8;;;;-83
2022/04/03 04:06:13;;;;;;;;;;;;;;;-1.38;57.11133;102450.7;;;;-85
2022/04/03 04:11:11;;;;;;;;;;;;;;;-1.43;57.22461;102449;;;;-84
2022/04/03 04:16:14;;;;;;;;;;;;;;;-1.47;57.15332;102453.7;;;;-82
2022/04/03 04:21:15;;;;;;;;;;;;;;;-1.52;57.24316;102451.3;;;;-85
2022/04/03 04:25:08;;;;;;;1.5;0.6;;;;;;;;;;;;;-84
2022/04/03 04:26:13;;;;;;;;;;;;;;;-1.58;57.26855;102451.8;;;;-86
2022/04/03 04:31:14;;;;;;;;;;;;;;;-1.64;57.20703;102452.8;;;;-84
2022/04/03 04:36:12;;;;;;;;;;;;;;;-1.68;57.2334;102448.2;;;;-85
2022/04/03 04:41:15;;;;;;;;;;;;;;;-1.76;57.2666;102447.8;;;;-84
2022/04/03 04:46:20;;;;;;;;;;;;;;;-1.78;57.36035;102445.2;;;;-83
2022/04/03 04:51:14;;;;;;;;;;;;;;;-1.81;57.30273;102447.7;;;;-85
2022/04/03 04:55:00;;;;;;;1.1;0.6;;;;;;;;;;;;;-85
2022/04/03 04:56:12;;;;;;;;;;;;;;;-1.84;57.47168;102447.7;;;;-86
2022/04/03 05:01:13;;;;;;;;;;;;;;;-1.83;57.35449;102442.3;;;;-86
2022/04/03 05:06:23;;;;;;;;;;;;;;;-1.84;57.13672;102446.4;;;;-85
2022/04/03 05:11:23;;;;;;;;;;;;;;;-1.85;57.4043;102438.1;;;;-87
2022/04/03 05:16:14;;;;;;;;;;;;;;;-1.87;57.65234;102432.4;;;;-86
2022/04/03 05:21:27;;;;;;;;;;;;;;;-1.84;58.14258;102435.5;;;;-86
2022/04/03 05:25:04;;;;;;;1.7;0.8;;;;;;;;;;;;;-84
2022/04/03 05:26:12;;;;;;;;;;;;;;;-1.81;58.52539;102433;;;;-84
2022/04/03 05:31:18;;;;;;;;;;;;;;;-1.77;58.50879;102433.7;;;;-85
2022/04/03 05:36:12;;;;;;;;;;;;;;;-1.72;58.38477;102434.3;;;;-84
2022/04/03 05:41:12;;;;;;;;;;;;;;;-1.66;57.91895;102442.1;;;;-83
2022/04/03 05:46:15;;;;;;;;;;;;;;;-1.65;57.73438;102442.3;;;;-85
2022/04/03 05:51:12;;;;;;;;;;;;;;;-1.65;57.54004;102447.4;;;;-83
2022/04/03 05:55:08;;;;;;;3.3;1;;;;;;;;;;;;;-86
2022/04/03 05:56:26;;;;;;;;;;;;;;;-1.59;57.59082;102445.9;;;;-84
2022/04/03 06:01:14;;;;;;;;;;;;;;;-1.53;57.35156;102443.9;;;;-82
2022/04/03 06:06:20;;;;;;;;;;;;;;;-1.42;57.85254;102450;;;;-86
2022/04/03 06:21:25;;;;;;;;;;;;;;;-0.2;56.36914;102454.3;;;;-85
2022/04/03 06:25:09;;;;;;;2.1;1.1;;;;;;;;;;;;;-84
2022/04/03 06:26:12;;;;;;;;;;;;;;;-0.06;56.69141;102458.2;;;;-82
2022/04/03 06:31:28;;;;;;;;;;;;;;;0.13;57.17188;102459.9;;;;-86
2022/04/03 06:36:18;;;;;;;;;;;;;;;0.47;56.26074;102455.6;;;;-83
2022/04/03 06:41:22;;;;;;;;;;;;;;;0.8;56.14258;102450.6;;;;-84
2022/04/03 06:46:12;;;;;;;;;;;;;;;1.19;56.23633;102447.4;;;;-83
2022/04/03 06:51:12;;;;;;;;;;;;;;;1.5;55.2959;102450;;;;-82
2022/04/03 06:54:56;;;;;;;4.6;1.4;;;;;;;;;;;;;-83
2022/04/03 06:56:12;;;;;;;;;;;;;;;1.8;55.37793;102443.4;;;;-83
2022/04/03 07:01:13;;;;;;;;;;;;;;;1.83;54.95605;102448.6;;;;-83
2022/04/03 07:06:13;;;;;;;;;;;;;;;1.95;55.91113;102446.8;;;;-85
2022/04/03 07:11:14;;;;;;;;;;;;;;;2.12;55.46387;102455.6;;;;-85
2022/04/03 07:16:12;;;;;;;;;;;;;;;2.49;55.45703;102455.4;;;;-86
2022/04/03 07:21:12;;;;;;;;;;;;;;;2.94;57.20117;102462.1;;;;-85
2022/04/03 07:24:56;;;;;;;3;1.4;;;;;;;;;;;;;-85
2022/04/03 07:26:12;;;;;;;;;;;;;;;3.18;55.34863;102468.3;;;;-86
2022/04/03 07:31:18;;;;;;;;;;;;;;;3.35;54.52734;102475.4;;;;-85
2022/04/03 07:36:13;;;;;;;;;;;;;;;3.4;55.04883;102481.6;;;;-85
2022/04/03 07:41:20;;;;;;;;;;;;;;;3.4;55.58594;102489.1;;;;-86
2022/04/03 07:46:17;;;;;;;;;;;;;;;3.37;55.21875;102499.1;;;;-85
2022/04/03 07:51:13;;;;;;;;;;;;;;;3.33;55.75195;102500.4;;;;-82
2022/04/03 07:54:58;;;;;;;4;0.9;;;;;;;;;;;;;-85
2022/04/03 07:56:18;;;;;;;;;;;;;;;3.32;55.89258;102505.3;;;;-83
2022/04/03 08:01:12;;;;;;;;;;;;;;;3.37;55.80078;102504.4;;;;-85
2022/04/03 08:06:20;;;;;;;;;;;;;;;3.48;55.81543;102503.9;;;;-85
2022/04/03 08:11:28;;;;;;;;;;;;;;;3.8;55.8125;102504.7;;;;-87
2022/04/03 08:16:20;;;;;;;;;;;;;;;4.43;55.35547;102502.7;;;;-83
2022/04/03 08:21:14;;;;;;;;;;;;;;;4.82;54.39551;102496.7;;;;-82
2022/04/03 08:25:27;;;;;;;2.3;1;;;;;;;;;;;;;-84
2022/04/03 08:26:31;;;;;;;;;;;;;;;4.94;54.88281;102498.9;;;;-84
2022/04/03 08:33:28;;;;;;;;;;;;;;;5.15;55.31641;102494.5;;;;-83
2022/04/03 08:38:25;;;;;;;;;;;;;;;5.59;54.97852;102490.2;;;;-82
2022/04/03 08:43:23;;;;;;;;;;;;;;;6.24;54.90527;102486.8;;;;-81
2022/04/03 08:48:26;;;;;;;;;;;;;;;7;53.91895;102483.8;;;;-82
2022/04/03 08:53:28;;;;;;;;;;;;;;;7.52;53.46191;102481.4;;;;-83
2022/04/03 08:55:00;;;;;;;1.7;0.8;;;;;;;;;;;;;-82
2022/04/03 08:58:23;;;;;;;;;;;;;;;8.15;53.39648;102481.1;;;;-82
2022/04/03 09:03:22;;;;;;;;;;;;;;;8.78;52.77344;102474.2;;;;-82
2022/04/03 09:08:23;;;;;;;;;;;;;;;9.33;52.68555;102466.9;;;;-82
2022/04/03 09:13:31;;;;;;;;;;;;;;;9.86;51.71387;102469.3;;;;-82
2022/04/03 09:18:35;;;;;;;;;;;;;;;10;51.06152;102469.8;;;;-81
2022/04/03 09:23:26;;;;;;;;;;;;;;;9.73;50.97461;102464.8;;;;-82
2022/04/03 09:25:02;;;;;;;1.3;0.6;;;;;;;;;;;;;-80
2022/04/03 09:28:25;;;;;;;;;;;;;;;9.38;51.41113;102462.3;;;;-82
2022/04/03 09:33:27;;;;;;;;;;;;;;;9.13;52.20508;102459.1;;;;-82
2022/04/03 09:38:27;;;;;;;;;;;;;;;9.26;53.72168;102452.4;;;;-80
2022/04/03 09:43:26;;;;;;;;;;;;;;;9.68;52.73828;102447.2;;;;-82
2022/04/03 09:48:31;;;;;;;;;;;;;;;10.07;51.64941;102440.6;;;;-82
2022/04/03 09:53:24;;;;;;;;;;;;;;;10.47;51.97656;102434.9;;;;-81
2022/04/03 09:55:01;;;;;;;1.9;0.5;;;;;;;;;;;;;-83
2022/04/03 09:58:24;;;;;;;;;;;;;;;11.01;50.55371;102430.9;;;;-83
2022/04/03 10:03:23;;;;;;;;;;;;;;;11.13;48.94629;102432.5;;;;-84
2022/04/03 10:08:27;;;;;;;;;;;;;;;10.9;48.53027;102436.7;;;;-84
2022/04/03 10:13:27;;;;;;;;;;;;;;;10.41;49.46875;102446.4;;;;-81
2022/04/03 10:18:22;;;;;;;;;;;;;;;9.82;50.18164;102451.6;;;;-82
2022/04/03 10:23:34;;;;;;;;;;;;;;;9.31;51.52637;102456.3;;;;-83
2022/04/03 10:24:59;;;;;;;1.2;0.5;;;;;;;;;;;;;-82
2022/04/03 10:28:38;;;;;;;;;;;;;;;8.94;53.00391;102460.2;;;;-81
2022/04/03 10:33:40;;;;;;;;;;;;;;;8.72;54.34277;102457.1;;;;-80
2022/04/03 10:38:40;;;;;;;;;;;;;;;8.61;53.64258;102455.4;;;;-81
2022/04/03 10:45:57;;;;;;;;;;;;;;;8.57;52.45996;102445.5;;;;-78
2022/04/03 10:55:27;;;;;;;1;0.4;;;;;;;;;;;;;-81
2022/04/03 10:55:54;;;;;;;;;;;;;;;8.73;55.02246;102428.4;;;;-80
2022/04/03 11:00:56;;;;;;;;;;;;;;;9.2;55.06055;102418.7;;;;-81
2022/04/03 11:06:04;;;;;;;;;;;;;;;9.57;54.60547;102407;;;;-79
2022/04/03 11:25:51;;;;;;;1.3;0.5;;;;;;;;;;;;;-84
2022/04/03 11:54:59;;;;;;;;;;;;;;;9.53;56.54688;102401.5;;;;-83
2022/04/03 11:55:11;;;;;;;1.2;0.4;;;;;;;;;;;;;-83
2022/04/03 11:59:52;;;;;;;;;;;;;;;9.84;57.08691;102392;;;;-84
2022/04/03 12:04:49;;;;;;;;;;;;;;;10.18;57.55469;102396.5;;;;-83
2022/04/03 12:09:51;;;;;;;;;;;;;;;10.4;57.07129;102392.8;;;;-84
2022/04/03 12:14:53;;;;;;;;;;;;;;;10.51;56.72949;102381.4;;;;-83
2022/04/03 12:19:55;;;;;;;;;;;;;;;10.63;56.60156;102388;;;;-85
2022/04/03 12:24:49;;;;;;;;;;;;;;;10.78;56.79883;102380.1;;;;-84
2022/04/03 12:25:03;;;;;;;1.4;0.5;;;;;;;;;;;;;-84
2022/04/03 12:29:51;;;;;;;;;;;;;;;10.87;56.71973;102384.8;;;;-86
2022/04/03 12:34:52;;;;;;;;;;;;;;;10.93;56.59473;102377.3;;;;-85
2022/04/03 12:40:05;;;;;;;;;;;;;;;11.09;57.30566;102361.6;;;;-84
2022/04/03 12:44:53;;;;;;;;;;;;;;;11.46;57.54492;102350.5;;;;-84
2022/04/03 12:50:06;;;;;;;;;;;;;;;11.88;57.75684;102351.3;;;;-83
2022/04/03 12:54:49;;;;;;;;;;;;;;;12.3;57.3877;102353.9;;;;-85
2022/04/03 12:55:04;;;;;;;2.1;0.6;;;;;;;;;;;;;-83
2022/04/03 12:59:49;;;;;;;;;;;;;;;12.37;56.03223;102340.1;;;;-84
2022/04/03 13:04:49;;;;;;;;;;;;;;;12.25;55.06641;102335.6;;;;-83
2022/04/03 13:09:55;;;;;;;;;;;;;;;12.25;55.44629;102332.1;;;;-83
2022/04/03 13:14:51;;;;;;;;;;;;;;;12.41;55.45508;102329;;;;-85
2022/04/03 13:19:50;;;;;;;;;;;;;;;12.7;55.97363;102319.4;;;;-87
2022/04/03 13:24:58;;;;;;;;;;;;;;;13.07;56.03125;102316.8;;;;-85
2022/04/03 13:25:09;;;;;;;1.5;0.6;;;;;;;;;;;;;-85
2022/04/03 13:29:50;;;;;;;;;;;;;;;13.36;55.59668;102322.3;;;;-84
2022/04/03 13:35:05;;;;;;;;;;;;;;;13.34;54.16992;102331.6;;;;-84
2022/04/03 13:39:55;;;;;;;;;;;;;;;12.98;52.72461;102327.8;;;;-83
2022/04/03 13:44:50;;;;;;;;;;;;;;;12.61;53.64453;102306.8;;;;-83
2022/04/03 13:49:51;;;;;;;;;;;;;;;12.49;54.74902;102301.1;;;;-83
2022/04/03 13:54:51;;;;;;;;;;;;;;;12.57;54.40039;102286.4;;;;-83
2022/04/03 13:55:07;;;;;;;2;0.6;;;;;;;;;;;;;-83
2022/04/03 13:59:56;;;;;;;;;;;;;;;12.74;54.39941;102291.9;;;;-82
2022/04/03 14:04:49;;;;;;;;;;;;;;;12.87;53.32813;102285;;;;-84
2022/04/03 14:09:49;;;;;;;;;;;;;;;12.84;52.63965;102289;;;;-82
2022/04/03 14:14:55;;;;;;;;;;;;;;;12.64;52.85059;102272.6;;;;-84
2022/04/03 14:19:58;;;;;;;;;;;;;;;12.54;52.34668;102273.7;;;;-84
2022/04/03 14:24:57;;;;;;;;;;;;;;;12.55;52.72754;102271.5;;;;-84
2022/04/03 14:25:10;;;;;;;2.2;0.6;;;;;;;;;;;;;-84
2022/04/03 14:30:03;;;;;;;;;;;;;;;12.7;52.71289;102263.6;;;;-85
2022/04/03 14:34:58;;;;;;;;;;;;;;;12.86;52.95703;102262.8;;;;-84
2022/04/03 14:40:01;;;;;;;;;;;;;;;13.11;52.89648;102260.4;;;;-84
2022/04/03 14:44:55;;;;;;;;;;;;;;;13.26;52.82422;102262.6;;;;-81
2022/04/03 14:49:50;;;;;;;;;;;;;;;13.29;52.92969;102262.5;;;;-84
2022/04/03 14:54:59;;;;;;;;;;;;;;;13.18;53.26465;102259.6;;;;-84
2022/04/03 14:55:16;;;;;;;1.9;0.6;;;;;;;;;;;;;-84
2022/04/03 14:59:49;;;;;;;;;;;;;;;13.1;52.91797;102257.2;;;;-84
2022/04/03 15:04:52;;;;;;;;;;;;;;;13.06;52.04883;102254.5;;;;-84
2022/04/03 15:09:58;;;;;;;;;;;;;;;12.98;51.70215;102257.8;;;;-83
2022/04/03 15:14:50;;;;;;;;;;;;;;;12.87;51.54395;102264.6;;;;-84
2022/04/03 15:19:49;;;;;;;;;;;;;;;12.59;51.05176;102265.8;;;;-84
2022/04/03 15:24:51;;;;;;;;;;;;;;;12.11;50.52441;102270.3;;;;-83
2022/04/03 15:25:13;;;;;;;1.3;0.4;;;;;;;;;;;;;-83
2022/04/03 15:29:53;;;;;;;;;;;;;;;11.57;51.58203;102273.4;;;;-84
2022/04/03 15:34:54;;;;;;;;;;;;;;;11.17;52.94336;102255.8;;;;-84
2022/04/03 15:39:59;;;;;;;;;;;;;;;10.92;53.78223;102258;;;;-80
2022/04/03 15:44:55;;;;;;;;;;;;;;;10.71;54.24707;102253.9;;;;-83
2022/04/03 15:49:56;;;;;;;;;;;;;;;10.59;54.56641;102250.7;;;;-82
2022/04/03 15:54:50;;;;;;;;;;;;;;;10.62;54.74805;102246.5;;;;-84
2022/04/03 15:55:14;;;;;;;1;0.5;;;;;;;;;;;;;-83
2022/04/03 15:59:49;;;;;;;;;;;;;;;10.57;54.33105;102245.6;;;;-80
2022/04/03 16:04:50;;;;;;;;;;;;;;;10.43;54.45801;102241.2;;;;-83
2022/04/03 16:09:49;;;;;;;;;;;;;;;10.35;54.64941;102236;;;;-83
2022/04/03 16:14:52;;;;;;;;;;;;;;;10.36;53.86914;102232.4;;;;-84
2022/04/03 16:19:51;;;;;;;;;;;;;;;10.37;53.32422;102225.3;;;;-84
2022/04/03 16:24:49;;;;;;;;;;;;;;;10.34;53.23145;102230.7;;;;-86
2022/04/03 16:25:18;;;;;;;2.3;0.6;;;;;;;;;;;;;-84
2022/04/03 16:29:49;;;;;;;;;;;;;;;10.26;53.07715;102217.1;;;;-84
2022/04/03 16:34:49;;;;;;;;;;;;;;;10.12;53.04883;102217.6;;;;-82
2022/04/03 16:39:49;;;;;;;;;;;;;;;9.97;53.40918;102213.9;;;;-84
2022/04/03 16:44:51;;;;;;;;;;;;;;;9.81;53.55566;102214;;;;-84
2022/04/03 16:49:49;;;;;;;;;;;;;;;9.71;53.82129;102211.8;;;;-85
2022/04/03 16:54:51;;;;;;;;;;;;;;;9.65;53.75977;102207.7;;;;-83
2022/04/03 16:55:16;;;;;;;1.5;0.5;;;;;;;;;;;;;-83
2022/04/03 16:59:50;;;;;;;;;;;;;;;9.64;53.41211;102219.5;;;;-84
2022/04/03 17:04:55;;;;;;;;;;;;;;;9.53;53.23242;102217;;;;-83
2022/04/03 17:09:51;;;;;;;;;;;;;;;9.34;53.29785;102210.6;;;;-83
2022/04/03 17:15:01;;;;;;;;;;;;;;;9.18;53.30078;102203.2;;;;-83
2022/04/03 17:19:49;;;;;;;;;;;;;;;9.02;53.45898;102195.5;;;;-84
2022/04/03 17:24:54;;;;;;;;;;;;;;;8.89;53.50879;102187.1;;;;-82
2022/04/03 17:25:19;;;;;;;1.7;0.7;;;;;;;;;;;;;-83
2022/04/03 17:29:58;;;;;;;;;;;;;;;8.75;53.45898;102189.5;;;;-83
2022/04/03 17:34:58;;;;;;;;;;;;;;;8.58;53.44922;102189.7;;;;-81
2022/04/03 17:40:03;;;;;;;;;;;;;;;8.37;53.5127;102187.5;;;;-82
2022/04/03 17:45:03;;;;;;;;;;;;;;;8.15;53.70703;102185;;;;-83
2022/04/03 17:49:56;;;;;;;;;;;;;;;7.93;53.79004;102184.7;;;;-81
2022/04/03 17:54:58;;;;;;;;;;;;;;;7.72;54.07324;102192.2;;;;-84
2022/04/03 17:55:20;;;;;;;1;0.5;;;;;;;;;;;;;-81
2022/04/03 17:59:51;;;;;;;;;;;;;;;7.5;54.0791;102189.4;;;;-84
2022/04/03 18:04:50;;;;;;;;;;;;;;;7.29;54.10938;102202.8;;;;-83
2022/04/03 18:09:49;;;;;;;;;;;;;;;7.09;54.38379;102207.7;;;;-80
2022/04/03 18:14:57;;;;;;;;;;;;;;;6.93;54.67285;102203.4;;;;-82
2022/04/03 18:19:49;;;;;;;;;;;;;;;6.78;54.4873;102202.5;;;;-83
2022/04/03 18:24:52;;;;;;;;;;;;;;;6.61;54.48828;102205.1;;;;-85
2022/04/03 18:25:19;;;;;;;2.3;0.7;;;;;;;;;;;;;-84
2022/04/03 18:29:50;;;;;;;;;;;;;;;6.42;54.55273;102191.9;;;;-84
2022/04/03 18:34:50;;;;;;;;;;;;;;;6.24;54.68555;102191.3;;;;-81
2022/04/03 18:39:49;;;;;;;;;;;;;;;6.05;54.95801;102185.6;;;;-82
2022/04/03 18:44:49;;;;;;;;;;;;;;;5.87;55.18945;102184.5;;;;-83
2022/04/03 18:49:49;;;;;;;;;;;;;;;5.7;55.41016;102181.5;;;;-84
2022/04/03 18:54:50;;;;;;;;;;;;;;;5.52;55.70605;102180.5;;;;-82
2022/04/03 18:55:20;;;;;;;1.5;0.7;;;;;;;;;;;;;-81
2022/04/03 18:59:49;;;;;;;;;;;;;;;5.37;55.99414;102174.9;;;;-83
2022/04/03 19:04:51;;;;;;;;;;;;;;;5.21;56.27148;102170.2;;;;-84
2022/04/03 19:09:51;;;;;;;;;;;;;;;5.07;56.63867;102176.2;;;;-82
2022/04/03 19:14:50;;;;;;;;;;;;;;;4.94;57.00586;102172.4;;;;-83
2022/04/03 19:19:56;;;;;;;;;;;;;;;4.82;57.37402;102169.4;;;;-83
2022/04/03 19:24:49;;;;;;;;;;;;;;;4.71;57.75586;102171.1;;;;-82
2022/04/03 19:25:20;;;;;;;1.9;0.7;;;;;;;;;;;;;-81
2022/04/03 19:29:50;;;;;;;;;;;;;;;4.61;57.90723;102168.7;;;;-83
2022/04/03 19:34:50;;;;;;;;;;;;;;;4.51;58.21289;102165.4;;;;-82
2022/04/03 19:39:49;;;;;;;;;;;;;;;4.42;58.5957;102161.6;;;;-80
2022/04/03 19:44:49;;;;;;;;;;;;;;;4.34;58.93457;102160;;;;-83
2022/04/03 19:49:49;;;;;;;;;;;;;;;4.25;59.05566;102152.2;;;;-82
2022/04/03 19:54:49;;;;;;;;;;;;;;;4.17;59.20898;102144.9;;;;-82
2022/04/03 19:55:23;;;;;;;1.9;0.9;;;;;;;;;;;;;-82
2022/04/03 19:59:51;;;;;;;;;;;;;;;4.1;59.46191;102145;;;;-82
2022/04/03 20:04:49;;;;;;;;;;;;;;;4.02;59.59277;102142.4;;;;-83
2022/04/03 20:09:49;;;;;;;;;;;;;;;3.92;59.58008;102133.5;;;;-82
2022/04/03 20:14:49;;;;;;;;;;;;;;;3.83;59.81836;102127.8;;;;-83
2022/04/03 20:19:49;;;;;;;;;;;;;;;3.76;59.9834;102122.5;;;;-83
2022/04/03 20:24:50;;;;;;;;;;;;;;;3.7;60.2168;102119.1;;;;-81
2022/04/03 20:25:20;;;;;;;3.5;1.1;;;;;;;;;;;;;-82
2022/04/03 20:29:49;;;;;;;;;;;;;;;3.63;60.46973;102113.3;;;;-81
2022/04/03 20:34:49;;;;;;;;;;;;;;;3.55;60.32813;102110;;;;-83
2022/04/03 20:39:52;;;;;;;;;;;;;;;3.48;60.56934;102107;;;;-81
2022/04/03 20:44:49;;;;;;;;;;;;;;;3.41;60.58105;102102.2;;;;-82
2022/04/03 20:49:49;;;;;;;;;;;;;;;3.32;60.82129;102101.3;;;;-83
2022/04/03 20:54:49;;;;;;;;;;;;;;;3.25;60.91992;102092.3;;;;-82
2022/04/03 20:55:21;;;;;;;2.2;1.1;;;;;;;;;;;;;-82
2022/04/03 20:59:50;;;;;;;;;;;;;;;3.19;61.30469;102085.8;;;;-82
2022/04/03 21:04:50;;;;;;;;;;;;;;;3.14;61.0127;102075.7;;;;-82
2022/04/03 21:09:49;;;;;;;;;;;;;;;3.08;61.07129;102081.4;;;;-82
2022/04/03 21:14:49;;;;;;;;;;;;;;;3.03;61.3584;102076.9;;;;-82
2022/04/03 21:19:50;;;;;;;;;;;;;;;2.98;60.98047;102073.1;;;;-82
2022/04/03 21:24:49;;;;;;;;;;;;;;;2.92;60.80859;102061.5;;;;-82
2022/04/03 21:25:20;;;;;;;2.7;1.2;;;;;;;;;;;;;-82
2022/04/03 21:29:49;;;;;;;;;;;;;;;2.86;60.94141;102048.5;;;;-82
2022/04/03 21:34:51;;;;;;;;;;;;;;;2.8;61.0752;102043.3;;;;-82
2022/04/03 21:39:49;;;;;;;;;;;;;;;2.73;61.18457;102032.3;;;;-83
2022/04/03 21:44:49;;;;;;;;;;;;;;;2.68;61.40723;102019.9;;;;-82
2022/04/03 21:49:49;;;;;;;;;;;;;;;2.63;61.29102;102016.9;;;;-82
2022/04/03 21:54:49;;;;;;;;;;;;;;;2.59;61.29492;102006.5;;;;-83
2022/04/03 21:55:20;;;;;;;2.6;1.3;;;;;;;;;;;;;-80
2022/04/03 21:59:50;;;;;;;;;;;;;;;2.54;61.66992;102001.4;;;;-82
2022/04/03 22:04:50;;;;;;;;;;;;;;;2.5;61.57715;101999.5;;;;-81
2022/04/03 22:09:49;;;;;;;;;;;;;;;2.45;61.30859;101995.2;;;;-82
2022/04/03 22:14:49;;;;;;;;;;;;;;;2.42;61.42383;101990.5;;;;-82
2022/04/03 22:19:49;;;;;;;;;;;;;;;2.39;61.69434;101985.5;;;;-82
2022/04/03 22:24:56;;;;;;;;;;;;;;;2.35;61.5459;101976.5;;;;-84
2022/04/03 22:25:22;;;;;;;3.6;1.3;;;;;;;;;;;;;-84
2022/04/03 22:29:58;;;;;;;;;;;;;;;2.32;61.91113;101965.2;;;;-84
2022/04/03 22:34:50;;;;;;;;;;;;;;;2.31;62.18262;101958.1;;;;-84
2022/04/03 22:39:49;;;;;;;;;;;;;;;2.32;62.5332;101950;;;;-83
2022/04/03 22:44:50;;;;;;;;;;;;;;;2.34;62.78809;101943.5;;;;-82
2022/04/03 22:49:55;;;;;;;;;;;;;;;2.37;63.06348;101933.4;;;;-83
2022/04/03 22:54:54;;;;;;;;;;;;;;;2.4;62.9502;101924.2;;;;-84
2022/04/03 22:55:20;;;;;;;3.3;1.5;;;;;;;;;;;;;-84
2022/04/03 22:59:49;;;;;;;;;;;;;;;2.42;63.7168;101917.8;;;;-83
2022/04/03 23:04:52;;;;;;;;;;;;;;;2.42;64.08691;101906.1;;;;-85
2022/04/03 23:09:55;;;;;;;;;;;;;;;2.46;64.32227;101899.8;;;;-84
2022/04/03 23:14:51;;;;;;;;;;;;;;;2.47;64.43262;101888;;;;-81
2022/04/03 23:19:52;;;;;;;;;;;;;;;2.5;64.98438;101879;;;;-83
2022/04/03 23:24:51;;;;;;;;;;;;;;;2.52;65.28125;101866.9;;;;-84
2022/04/03 23:25:22;;;;;;;5;1.9;;;;;;;;;;;;;-84
2022/04/03 23:29:52;;;;;;;;;;;;;;;2.54;65.01074;101858.8;;;;-85
2022/04/03 23:34:55;;;;;;;;;;;;;;;2.57;65.49512;101847.3;;;;-85
2022/04/03 23:39:52;;;;;;;;;;;;;;;2.57;65.50488;101836.8;;;;-85
2022/04/03 23:44:55;;;;;;;;;;;;;;;2.58;65.79102;101827.8;;;;-84
2022/04/03 23:49:55;;;;;;;;;;;;;;;2.58;66.00977;101818.6;;;;-85
2022/04/03 23:54:51;;;;;;;;;;;;;;;2.61;66.63477;101809.6;;;;-86
2022/04/03 23:55:19;;;;;;;4.8;2.3;;;;;;;;;;;;;-84
2022/04/03 23:59:49;;;;;;;;;;;;;;;2.63;67.02148;101800.7;;;;-84
